sensor_id;sensor_type;location;lat;lon;timestamp;temperature;humidity
71304;DHT22;59091;47.446;19.148;2023-04-24T00:00:49;15.67;47.97
71304;DHT22;59091;47.446;19.148;2023-04-24T00:03:16;15.59;48.04
71304;DHT22;59091;47.446;19.148;2023-04-24T00:05:42;15.62;48.10
71304;DHT22;59091;47.446;19.148;2023-04-24T00:08:08;15.61;48.31
71304;DHT22;59091;47.446;19.148;2023-04-24T00:10:33;15.56;48.82
71304;DHT22;59091;47.446;19.148;2023-04-24T00:12:58;15.56;48.84
71304;DHT22;59091;47.446;19.148;2023-04-24T00:15:24;15.55;48.81
71304;DHT22;59091;47.446;19.148;2023-04-24T00:17:49;15.55;48.48
71304;DHT22;59091;47.446;19.148;2023-04-24T00:20:15;15.42;49.34
71304;DHT22;59091;47.446;19.148;2023-04-24T00:22:40;15.48;49.26
71304;DHT22;59091;47.446;19.148;2023-04-24T00:25:06;15.53;48.84
71304;DHT22;59091;47.446;19.148;2023-04-24T00:27:32;15.59;49.22
71304;DHT22;59091;47.446;19.148;2023-04-24T00:29:57;15.63;49.23
71304;DHT22;59091;47.446;19.148;2023-04-24T00:32:23;15.63;49.21
71304;DHT22;59091;47.446;19.148;2023-04-24T00:34:48;15.67;48.91
71304;DHT22;59091;47.446;19.148;2023-04-24T00:37:14;15.66;49.45
71304;DHT22;59091;47.446;19.148;2023-04-24T00:39:39;15.69;49.58
71304;DHT22;59091;47.446;19.148;2023-04-24T00:42:05;15.67;49.63
71304;DHT22;59091;47.446;19.148;2023-04-24T00:44:32;15.66;49.30
71304;DHT22;59091;47.446;19.148;2023-04-24T00:46:58;15.69;49.16
71304;DHT22;59091;47.446;19.148;2023-04-24T00:49:24;15.69;49.35
71304;DHT22;59091;47.446;19.148;2023-04-24T00:51:50;15.69;49.20
71304;DHT22;59091;47.446;19.148;2023-04-24T00:54:17;15.65;49.05
71304;DHT22;59091;47.446;19.148;2023-04-24T00:56:43;15.65;49.96
71304;DHT22;59091;47.446;19.148;2023-04-24T00:59:10;15.58;50.34
71304;DHT22;59091;47.446;19.148;2023-04-24T01:01:35;15.45;50.23
71304;DHT22;59091;47.446;19.148;2023-04-24T01:04:01;15.38;50.63
71304;DHT22;59091;47.446;19.148;2023-04-24T01:06:28;15.36;50.54
71304;DHT22;59091;47.446;19.148;2023-04-24T01:08:56;15.17;51.44
71304;DHT22;59091;47.446;19.148;2023-04-24T01:11:22;15.14;50.81
71304;DHT22;59091;47.446;19.148;2023-04-24T01:13:47;15.20;50.41
71304;DHT22;59091;47.446;19.148;2023-04-24T01:16:14;15.25;50.54
71304;DHT22;59091;47.446;19.148;2023-04-24T01:18:40;15.25;50.81
71304;DHT22;59091;47.446;19.148;2023-04-24T01:21:08;15.22;50.60
71304;DHT22;59091;47.446;19.148;2023-04-24T01:23:33;15.24;50.69
71304;DHT22;59091;47.446;19.148;2023-04-24T01:26:00;15.17;50.92
71304;DHT22;59091;47.446;19.148;2023-04-24T01:28:25;15.22;51.21
71304;DHT22;59091;47.446;19.148;2023-04-24T01:30:52;15.25;51.22
71304;DHT22;59091;47.446;19.148;2023-04-24T01:33:18;15.27;51.23
71304;DHT22;59091;47.446;19.148;2023-04-24T01:35:43;15.25;51.21
71304;DHT22;59091;47.446;19.148;2023-04-24T01:38:09;15.30;51.03
71304;DHT22;59091;47.446;19.148;2023-04-24T01:40:34;15.30;51.02
71304;DHT22;59091;47.446;19.148;2023-04-24T01:43:00;15.25;51.18
71304;DHT22;59091;47.446;19.148;2023-04-24T01:45:25;15.24;51.55
71304;DHT22;59091;47.446;19.148;2023-04-24T01:47:51;15.17;52.20
71304;DHT22;59091;47.446;19.148;2023-04-24T01:50:17;15.08;52.75
71304;DHT22;59091;47.446;19.148;2023-04-24T01:52:43;15.14;52.30
71304;DHT22;59091;47.446;19.148;2023-04-24T01:55:09;15.12;52.48
71304;DHT22;59091;47.446;19.148;2023-04-24T01:57:35;15.04;53.31
71304;DHT22;59091;47.446;19.148;2023-04-24T02:00:01;14.97;53.84
71304;DHT22;59091;47.446;19.148;2023-04-24T02:02:29;14.85;54.90
71304;DHT22;59091;47.446;19.148;2023-04-24T02:04:55;14.76;55.88
71304;DHT22;59091;47.446;19.148;2023-04-24T02:07:20;14.69;59.38
71304;DHT22;59091;47.446;19.148;2023-04-24T02:09:46;14.53;60.30
71304;DHT22;59091;47.446;19.148;2023-04-24T02:12:11;14.59;61.82
71304;DHT22;59091;47.446;19.148;2023-04-24T02:14:37;14.59;62.01
71304;DHT22;59091;47.446;19.148;2023-04-24T02:17:02;14.47;62.05
71304;DHT22;59091;47.446;19.148;2023-04-24T02:19:28;14.55;62.38
71304;DHT22;59091;47.446;19.148;2023-04-24T02:21:54;14.56;62.30
71304;DHT22;59091;47.446;19.148;2023-04-24T02:24:19;14.60;62.58
71304;DHT22;59091;47.446;19.148;2023-04-24T02:26:45;14.63;63.39
71304;DHT22;59091;47.446;19.148;2023-04-24T02:29:10;14.52;64.49
71304;DHT22;59091;47.446;19.148;2023-04-24T02:31:36;14.52;63.41
71304;DHT22;59091;47.446;19.148;2023-04-24T02:34:01;14.42;63.42
71304;DHT22;59091;47.446;19.148;2023-04-24T02:36:27;14.42;64.10
71304;DHT22;59091;47.446;19.148;2023-04-24T02:38:52;14.42;63.96
71304;DHT22;59091;47.446;19.148;2023-04-24T02:41:17;14.47;64.02
71304;DHT22;59091;47.446;19.148;2023-04-24T02:43:43;14.47;63.79
71304;DHT22;59091;47.446;19.148;2023-04-24T02:46:08;14.52;63.37
71304;DHT22;59091;47.446;19.148;2023-04-24T02:48:34;14.52;63.65
71304;DHT22;59091;47.446;19.148;2023-04-24T02:50:59;14.43;63.90
71304;DHT22;59091;47.446;19.148;2023-04-24T02:53:25;14.36;63.88
71304;DHT22;59091;47.446;19.148;2023-04-24T02:55:50;14.50;63.53
71304;DHT22;59091;47.446;19.148;2023-04-24T02:58:16;14.47;64.40
71304;DHT22;59091;47.446;19.148;2023-04-24T03:00:42;14.50;64.00
71304;DHT22;59091;47.446;19.148;2023-04-24T03:03:08;14.50;65.51
71304;DHT22;59091;47.446;19.148;2023-04-24T03:05:34;14.62;65.89
71304;DHT22;59091;47.446;19.148;2023-04-24T03:07:59;14.57;66.07
71304;DHT22;59091;47.446;19.148;2023-04-24T03:10:25;14.66;66.39
71304;DHT22;59091;47.446;19.148;2023-04-24T03:12:50;14.66;66.07
71304;DHT22;59091;47.446;19.148;2023-04-24T03:15:16;14.69;66.14
71304;DHT22;59091;47.446;19.148;2023-04-24T03:17:41;14.66;66.55
71304;DHT22;59091;47.446;19.148;2023-04-24T03:20:07;14.67;66.83
71304;DHT22;59091;47.446;19.148;2023-04-24T03:22:34;14.67;67.56
71304;DHT22;59091;47.446;19.148;2023-04-24T03:25:00;14.64;67.36
71304;DHT22;59091;47.446;19.148;2023-04-24T03:27:26;14.64;67.43
71304;DHT22;59091;47.446;19.148;2023-04-24T03:29:51;14.59;67.67
71304;DHT22;59091;47.446;19.148;2023-04-24T03:32:23;14.47;67.45
71304;DHT22;59091;47.446;19.148;2023-04-24T03:34:49;14.50;66.47
71304;DHT22;59091;47.446;19.148;2023-04-24T03:37:15;14.47;66.35
71304;DHT22;59091;47.446;19.148;2023-04-24T03:39:41;14.37;66.47
71304;DHT22;59091;47.446;19.148;2023-04-24T03:42:06;14.37;66.83
71304;DHT22;59091;47.446;19.148;2023-04-24T03:44:34;14.37;66.52
71304;DHT22;59091;47.446;19.148;2023-04-24T03:46:59;14.25;66.84
71304;DHT22;59091;47.446;19.148;2023-04-24T03:49:25;14.29;67.16
71304;DHT22;59091;47.446;19.148;2023-04-24T03:51:50;14.28;66.74
71304;DHT22;59091;47.446;19.148;2023-04-24T03:54:17;14.33;66.72
71304;DHT22;59091;47.446;19.148;2023-04-24T03:56:43;14.28;67.82
71304;DHT22;59091;47.446;19.148;2023-04-24T03:59:08;14.36;67.03
71304;DHT22;59091;47.446;19.148;2023-04-24T04:01:33;14.36;66.77
71304;DHT22;59091;47.446;19.148;2023-04-24T04:04:03;14.39;66.88
71304;DHT22;59091;47.446;19.148;2023-04-24T04:06:28;14.39;67.04
71304;DHT22;59091;47.446;19.148;2023-04-24T04:08:56;14.36;66.79
71304;DHT22;59091;47.446;19.148;2023-04-24T04:11:21;14.28;67.17
71304;DHT22;59091;47.446;19.148;2023-04-24T04:13:47;14.26;67.19
71304;DHT22;59091;47.446;19.148;2023-04-24T04:16:13;14.26;67.12
71304;DHT22;59091;47.446;19.148;2023-04-24T04:18:39;14.28;67.37
71304;DHT22;59091;47.446;19.148;2023-04-24T04:21:04;14.21;67.42
71304;DHT22;59091;47.446;19.148;2023-04-24T04:23:30;14.25;67.55
71304;DHT22;59091;47.446;19.148;2023-04-24T04:25:55;14.18;67.44
71304;DHT22;59091;47.446;19.148;2023-04-24T04:28:21;14.28;66.89
71304;DHT22;59091;47.446;19.148;2023-04-24T04:30:46;14.25;67.70
71304;DHT22;59091;47.446;19.148;2023-04-24T04:33:12;14.74;73.09
71304;DHT22;59091;47.446;19.148;2023-04-24T04:35:38;14.91;67.66
71304;DHT22;59091;47.446;19.148;2023-04-24T04:38:03;14.94;66.01
71304;DHT22;59091;47.446;19.148;2023-04-24T04:40:29;14.91;66.10
71304;DHT22;59091;47.446;19.148;2023-04-24T04:42:55;14.98;65.53
71304;DHT22;59091;47.446;19.148;2023-04-24T04:45:21;14.90;65.77
71304;DHT22;59091;47.446;19.148;2023-04-24T04:47:47;14.53;65.91
71304;DHT22;59091;47.446;19.148;2023-04-24T04:50:12;14.55;66.07
71304;DHT22;59091;47.446;19.148;2023-04-24T04:52:38;14.44;66.30
71304;DHT22;59091;47.446;19.148;2023-04-24T04:55:04;14.37;66.56
71304;DHT22;59091;47.446;19.148;2023-04-24T04:57:30;14.55;67.07
71304;DHT22;59091;47.446;19.148;2023-04-24T04:59:56;14.79;65.80
71304;DHT22;59091;47.446;19.148;2023-04-24T05:02:21;14.88;64.87
71304;DHT22;59091;47.446;19.148;2023-04-24T05:04:47;14.55;64.47
71304;DHT22;59091;47.446;19.148;2023-04-24T05:07:12;14.52;67.10
71304;DHT22;59091;47.446;19.148;2023-04-24T05:09:37;14.34;66.34
71304;DHT22;59091;47.446;19.148;2023-04-24T05:12:03;14.25;66.79
71304;DHT22;59091;47.446;19.148;2023-04-24T05:14:29;14.43;66.06
71304;DHT22;59091;47.446;19.148;2023-04-24T05:16:54;14.44;66.08
71304;DHT22;59091;47.446;19.148;2023-04-24T05:19:19;14.43;65.86
71304;DHT22;59091;47.446;19.148;2023-04-24T05:21:45;14.40;66.13
71304;DHT22;59091;47.446;19.148;2023-04-24T05:24:11;14.67;65.45
71304;DHT22;59091;47.446;19.148;2023-04-24T05:26:36;14.88;65.31
71304;DHT22;59091;47.446;19.148;2023-04-24T05:29:02;14.90;65.62
71304;DHT22;59091;47.446;19.148;2023-04-24T05:31:28;15.08;67.19
71304;DHT22;59091;47.446;19.148;2023-04-24T05:33:53;15.12;64.67
71304;DHT22;59091;47.446;19.148;2023-04-24T05:36:18;15.30;64.34
71304;DHT22;59091;47.446;19.148;2023-04-24T05:38:44;15.38;63.54
71304;DHT22;59091;47.446;19.148;2023-04-24T05:41:10;15.41;63.66
71304;DHT22;59091;47.446;19.148;2023-04-24T05:43:35;15.43;62.90
71304;DHT22;59091;47.446;19.148;2023-04-24T05:46:01;15.45;63.71
71304;DHT22;59091;47.446;19.148;2023-04-24T05:48:26;15.61;62.85
71304;DHT22;59091;47.446;19.148;2023-04-24T05:50:52;15.75;62.93
71304;DHT22;59091;47.446;19.148;2023-04-24T05:53:18;15.89;63.20
71304;DHT22;59091;47.446;19.148;2023-04-24T05:55:43;15.97;62.73
71304;DHT22;59091;47.446;19.148;2023-04-24T05:58:09;15.86;63.01
71304;DHT22;59091;47.446;19.148;2023-04-24T06:00:35;15.85;62.22
71304;DHT22;59091;47.446;19.148;2023-04-24T06:03:00;15.92;62.51
71304;DHT22;59091;47.446;19.148;2023-04-24T06:05:26;16.00;61.96
71304;DHT22;59091;47.446;19.148;2023-04-24T06:07:51;16.10;61.98
71304;DHT22;59091;47.446;19.148;2023-04-24T06:10:17;16.12;62.03
71304;DHT22;59091;47.446;19.148;2023-04-24T06:12:42;16.00;62.00
71304;DHT22;59091;47.446;19.148;2023-04-24T06:15:08;16.20;61.30
71304;DHT22;59091;47.446;19.148;2023-04-24T06:17:34;16.37;61.56
71304;DHT22;59091;47.446;19.148;2023-04-24T06:19:59;16.33;62.06
71304;DHT22;59091;47.446;19.148;2023-04-24T06:22:25;16.33;61.91
71304;DHT22;59091;47.446;19.148;2023-04-24T06:24:50;16.60;60.82
71304;DHT22;59091;47.446;19.148;2023-04-24T06:27:15;16.47;61.96
71304;DHT22;59091;47.446;19.148;2023-04-24T06:29:41;16.37;61.84
71304;DHT22;59091;47.446;19.148;2023-04-24T06:32:06;16.53;61.95
71304;DHT22;59091;47.446;19.148;2023-04-24T06:34:32;16.64;61.55
71304;DHT22;59091;47.446;19.148;2023-04-24T06:36:59;16.34;62.62
71304;DHT22;59091;47.446;19.148;2023-04-24T06:39:25;16.35;61.97
71304;DHT22;59091;47.446;19.148;2023-04-24T06:41:50;16.34;61.47
71304;DHT22;59091;47.446;19.148;2023-04-24T06:44:16;16.34;62.26
71304;DHT22;59091;47.446;19.148;2023-04-24T06:46:42;16.38;63.25
71304;DHT22;59091;47.446;19.148;2023-04-24T06:49:07;16.47;63.69
71304;DHT22;59091;47.446;19.148;2023-04-24T06:51:32;16.33;64.83
71304;DHT22;59091;47.446;19.148;2023-04-24T06:53:58;16.20;65.18
71304;DHT22;59091;47.446;19.148;2023-04-24T06:56:25;16.31;68.89
71304;DHT22;59091;47.446;19.148;2023-04-24T06:58:51;16.24;65.95
71304;DHT22;59091;47.446;19.148;2023-04-24T07:01:16;16.20;65.80
71304;DHT22;59091;47.446;19.148;2023-04-24T07:03:42;16.00;66.81
71304;DHT22;59091;47.446;19.148;2023-04-24T07:06:07;16.00;67.04
71304;DHT22;59091;47.446;19.148;2023-04-24T07:08:33;16.09;67.11
71304;DHT22;59091;47.446;19.148;2023-04-24T07:10:59;16.13;66.86
71304;DHT22;59091;47.446;19.148;2023-04-24T07:13:25;16.14;66.97
71304;DHT22;59091;47.446;19.148;2023-04-24T07:15:51;16.35;66.07
71304;DHT22;59091;47.446;19.148;2023-04-24T07:18:19;16.41;66.04
71304;DHT22;59091;47.446;19.148;2023-04-24T07:20:45;16.60;65.68
71304;DHT22;59091;47.446;19.148;2023-04-24T07:23:10;16.69;64.86
71304;DHT22;59091;47.446;19.148;2023-04-24T07:25:36;16.72;65.15
71304;DHT22;59091;47.446;19.148;2023-04-24T07:28:01;16.51;65.60
71304;DHT22;59091;47.446;19.148;2023-04-24T07:30:27;16.44;66.36
71304;DHT22;59091;47.446;19.148;2023-04-24T07:32:54;16.58;66.19
71304;DHT22;59091;47.446;19.148;2023-04-24T07:35:20;16.64;67.17
71304;DHT22;59091;47.446;19.148;2023-04-24T07:37:46;16.63;67.26
71304;DHT22;59091;47.446;19.148;2023-04-24T07:40:12;16.64;67.36
71304;DHT22;59091;47.446;19.148;2023-04-24T07:42:38;16.72;68.31
71304;DHT22;59091;47.446;19.148;2023-04-24T07:45:04;16.51;67.14
71304;DHT22;59091;47.446;19.148;2023-04-24T07:47:30;16.57;67.79
71304;DHT22;59091;47.446;19.148;2023-04-24T07:49:56;16.60;67.84
71304;DHT22;59091;47.446;19.148;2023-04-24T07:52:21;16.51;68.44
71304;DHT22;59091;47.446;19.148;2023-04-24T07:54:47;16.74;67.71
71304;DHT22;59091;47.446;19.148;2023-04-24T07:57:12;16.58;67.54
71304;DHT22;59091;47.446;19.148;2023-04-24T07:59:38;16.68;67.69
71304;DHT22;59091;47.446;19.148;2023-04-24T08:02:04;16.78;67.32
71304;DHT22;59091;47.446;19.148;2023-04-24T08:04:31;17.18;66.97
71304;DHT22;59091;47.446;19.148;2023-04-24T08:06:56;17.45;67.38
71304;DHT22;59091;47.446;19.148;2023-04-24T08:09:22;17.98;65.79
71304;DHT22;59091;47.446;19.148;2023-04-24T08:11:47;18.53;64.68
71304;DHT22;59091;47.446;19.148;2023-04-24T08:14:13;18.77;63.19
71304;DHT22;59091;47.446;19.148;2023-04-24T08:16:40;19.07;60.28
71304;DHT22;59091;47.446;19.148;2023-04-24T08:19:05;19.02;61.08
71304;DHT22;59091;47.446;19.148;2023-04-24T08:21:31;19.09;60.89
71304;DHT22;59091;47.446;19.148;2023-04-24T08:23:57;19.26;59.13
71304;DHT22;59091;47.446;19.148;2023-04-24T08:26:23;19.31;59.15
71304;DHT22;59091;47.446;19.148;2023-04-24T08:28:48;19.18;58.59
71304;DHT22;59091;47.446;19.148;2023-04-24T08:31:14;19.09;59.00
71304;DHT22;59091;47.446;19.148;2023-04-24T08:33:39;19.68;57.74
71304;DHT22;59091;47.446;19.148;2023-04-24T08:36:06;19.82;57.35
71304;DHT22;59091;47.446;19.148;2023-04-24T08:38:33;19.83;56.73
71304;DHT22;59091;47.446;19.148;2023-04-24T08:41:00;20.12;55.52
71304;DHT22;59091;47.446;19.148;2023-04-24T08:43:26;20.30;54.66
71304;DHT22;59091;47.446;19.148;2023-04-24T08:45:52;20.36;56.48
71304;DHT22;59091;47.446;19.148;2023-04-24T08:48:18;20.43;56.44
71304;DHT22;59091;47.446;19.148;2023-04-24T08:50:44;20.13;55.23
71304;DHT22;59091;47.446;19.148;2023-04-24T08:53:10;20.33;54.75
71304;DHT22;59091;47.446;19.148;2023-04-24T08:55:37;20.22;55.16
71304;DHT22;59091;47.446;19.148;2023-04-24T08:58:03;20.00;55.34
71304;DHT22;59091;47.446;19.148;2023-04-24T09:00:29;20.06;55.68
71304;DHT22;59091;47.446;19.148;2023-04-24T09:02:55;20.25;54.56
71304;DHT22;59091;47.446;19.148;2023-04-24T09:05:22;20.36;54.15
71304;DHT22;59091;47.446;19.148;2023-04-24T09:07:56;20.60;58.64
71304;DHT22;59091;47.446;19.148;2023-04-24T09:10:23;21.14;58.81
71304;DHT22;59091;47.446;19.148;2023-04-24T09:12:50;21.45;54.74
71304;DHT22;59091;47.446;19.148;2023-04-24T09:15:16;21.69;56.16
71304;DHT22;59091;47.446;19.148;2023-04-24T09:17:42;21.53;54.64
71304;DHT22;59091;47.446;19.148;2023-04-24T09:20:08;21.49;55.06
71304;DHT22;59091;47.446;19.148;2023-04-24T09:22:34;21.76;54.15
71304;DHT22;59091;47.446;19.148;2023-04-24T09:25:04;22.04;52.12
71304;DHT22;59091;47.446;19.148;2023-04-24T09:27:32;22.23;49.81
71304;DHT22;59091;47.446;19.148;2023-04-24T09:29:58;22.36;49.12
71304;DHT22;59091;47.446;19.148;2023-04-24T09:32:24;22.55;49.29
71304;DHT22;59091;47.446;19.148;2023-04-24T09:35:06;22.68;48.79
71304;DHT22;59091;47.446;19.148;2023-04-24T09:37:36;22.98;48.79
71304;DHT22;59091;47.446;19.148;2023-04-24T09:40:11;22.84;46.91
71304;DHT22;59091;47.446;19.148;2023-04-24T09:42:38;22.76;48.85
71304;DHT22;59091;47.446;19.148;2023-04-24T09:45:08;23.03;47.90
71304;DHT22;59091;47.446;19.148;2023-04-24T09:47:37;22.62;47.66
71304;DHT22;59091;47.446;19.148;2023-04-24T09:50:30;22.81;47.54
71304;DHT22;59091;47.446;19.148;2023-04-24T09:53:06;22.72;47.27
71304;DHT22;59091;47.446;19.148;2023-04-24T09:55:39;22.54;50.98
71304;DHT22;59091;47.446;19.148;2023-04-24T09:58:07;22.76;45.99
71304;DHT22;59091;47.446;19.148;2023-04-24T10:00:33;22.48;46.48
71304;DHT22;59091;47.446;19.148;2023-04-24T10:03:00;22.54;46.72
71304;DHT22;59091;47.446;19.148;2023-04-24T10:05:33;22.58;46.34
71304;DHT22;59091;47.446;19.148;2023-04-24T10:08:04;22.67;45.74
71304;DHT22;59091;47.446;19.148;2023-04-24T10:10:31;22.76;46.45
71304;DHT22;59091;47.446;19.148;2023-04-24T10:12:57;22.69;45.61
71304;DHT22;59091;47.446;19.148;2023-04-24T10:15:24;22.78;44.63
71304;DHT22;59091;47.446;19.148;2023-04-24T10:17:50;22.60;46.03
71304;DHT22;59091;47.446;19.148;2023-04-24T10:20:24;22.91;45.97
71304;DHT22;59091;47.446;19.148;2023-04-24T10:22:51;22.98;45.46
71304;DHT22;59091;47.446;19.148;2023-04-24T10:25:21;23.15;45.22
71304;DHT22;59091;47.446;19.148;2023-04-24T10:27:48;23.09;44.66
71304;DHT22;59091;47.446;19.148;2023-04-24T10:30:14;23.08;43.88
71304;DHT22;59091;47.446;19.148;2023-04-24T10:32:40;23.08;44.69
71304;DHT22;59091;47.446;19.148;2023-04-24T10:35:07;22.88;44.67
71304;DHT22;59091;47.446;19.148;2023-04-24T10:37:43;22.79;44.74
71304;DHT22;59091;47.446;19.148;2023-04-24T10:40:11;22.82;45.26
71304;DHT22;59091;47.446;19.148;2023-04-24T10:42:40;22.60;46.07
71304;DHT22;59091;47.446;19.148;2023-04-24T10:45:22;22.84;45.60
71304;DHT22;59091;47.446;19.148;2023-04-24T10:47:52;22.92;46.09
71304;DHT22;59091;47.446;19.148;2023-04-24T10:50:18;22.91;46.17
71304;DHT22;59091;47.446;19.148;2023-04-24T10:52:44;22.82;47.51
71304;DHT22;59091;47.446;19.148;2023-04-24T10:55:12;22.90;46.25
71304;DHT22;59091;47.446;19.148;2023-04-24T10:57:38;22.94;45.73
71304;DHT22;59091;47.446;19.148;2023-04-24T11:00:20;23.06;45.01
71304;DHT22;59091;47.446;19.148;2023-04-24T11:02:47;23.03;44.56
71304;DHT22;59091;47.446;19.148;2023-04-24T11:05:16;23.22;44.46
71304;DHT22;59091;47.446;19.148;2023-04-24T11:08:14;23.06;44.99
71304;DHT22;59091;47.446;19.148;2023-04-24T11:10:53;23.19;45.15
71304;DHT22;59091;47.446;19.148;2023-04-24T11:13:27;23.16;45.64
71304;DHT22;59091;47.446;19.148;2023-04-24T11:16:15;23.11;44.94
71304;DHT22;59091;47.446;19.148;2023-04-24T11:18:45;23.46;44.93
71304;DHT22;59091;47.446;19.148;2023-04-24T11:21:12;23.57;43.23
71304;DHT22;59091;47.446;19.148;2023-04-24T11:23:38;23.74;43.22
71304;DHT22;59091;47.446;19.148;2023-04-24T11:26:18;23.85;43.70
71304;DHT22;59091;47.446;19.148;2023-04-24T11:28:45;23.91;43.12
71304;DHT22;59091;47.446;19.148;2023-04-24T11:31:34;24.15;43.31
71304;DHT22;59091;47.446;19.148;2023-04-24T11:36:34;23.93;44.20
71304;DHT22;59091;47.446;19.148;2023-04-24T11:39:00;24.04;44.06
71304;DHT22;59091;47.446;19.148;2023-04-24T11:41:26;24.35;43.87
71304;DHT22;59091;47.446;19.148;2023-04-24T11:43:52;24.36;43.02
71304;DHT22;59091;47.446;19.148;2023-04-24T11:46:20;24.28;44.86
71304;DHT22;59091;47.446;19.148;2023-04-24T11:48:46;24.21;44.93
71304;DHT22;59091;47.446;19.148;2023-04-24T11:51:13;24.26;44.23
71304;DHT22;59091;47.446;19.148;2023-04-24T11:53:38;24.52;45.32
71304;DHT22;59091;47.446;19.148;2023-04-24T11:56:04;24.47;44.24
71304;DHT22;59091;47.446;19.148;2023-04-24T11:58:35;24.34;43.86
71304;DHT22;59091;47.446;19.148;2023-04-24T12:01:01;24.18;44.53
71304;DHT22;59091;47.446;19.148;2023-04-24T12:03:26;23.93;45.06
71304;DHT22;59091;47.446;19.148;2023-04-24T12:05:52;23.73;44.81
71304;DHT22;59091;47.446;19.148;2023-04-24T12:08:27;23.34;45.81
71304;DHT22;59091;47.446;19.148;2023-04-24T12:10:53;22.94;48.34
71304;DHT22;59091;47.446;19.148;2023-04-24T12:13:19;22.61;51.04
71304;DHT22;59091;47.446;19.148;2023-04-24T12:15:44;22.29;51.32
71304;DHT22;59091;47.446;19.148;2023-04-24T12:18:12;22.57;51.34
71304;DHT22;59091;47.446;19.148;2023-04-24T12:20:38;22.68;50.92
71304;DHT22;59091;47.446;19.148;2023-04-24T12:23:03;22.90;50.00
71304;DHT22;59091;47.446;19.148;2023-04-24T12:25:30;22.90;49.31
71304;DHT22;59091;47.446;19.148;2023-04-24T12:30:34;23.13;49.81
71304;DHT22;59091;47.446;19.148;2023-04-24T12:33:00;23.36;49.29
71304;DHT22;59091;47.446;19.148;2023-04-24T12:35:30;22.99;49.84
71304;DHT22;59091;47.446;19.148;2023-04-24T12:38:05;23.02;51.16
71304;DHT22;59091;47.446;19.148;2023-04-24T12:40:31;22.51;53.14
71304;DHT22;59091;47.446;19.148;2023-04-24T12:42:57;22.81;52.41
71304;DHT22;59091;47.446;19.148;2023-04-24T12:45:22;22.78;51.81
71304;DHT22;59091;47.446;19.148;2023-04-24T12:47:48;22.81;51.82
71304;DHT22;59091;47.446;19.148;2023-04-24T12:50:15;22.84;51.86
71304;DHT22;59091;47.446;19.148;2023-04-24T12:52:41;23.05;51.43
71304;DHT22;59091;47.446;19.148;2023-04-24T12:55:07;22.91;52.55
71304;DHT22;59091;47.446;19.148;2023-04-24T12:57:35;22.84;53.35
71304;DHT22;59091;47.446;19.148;2023-04-24T13:00:01;22.45;53.15
71304;DHT22;59091;47.446;19.148;2023-04-24T13:02:28;22.21;53.40
71304;DHT22;59091;47.446;19.148;2023-04-24T13:04:55;21.93;53.78
71304;DHT22;59091;47.446;19.148;2023-04-24T13:07:21;22.03;53.85
71304;DHT22;59091;47.446;19.148;2023-04-24T13:09:48;21.83;54.31
71304;DHT22;59091;47.446;19.148;2023-04-24T13:12:13;22.02;53.35
71304;DHT22;59091;47.446;19.148;2023-04-24T13:14:39;22.10;52.49
71304;DHT22;59091;47.446;19.148;2023-04-24T13:17:05;22.20;53.13
71304;DHT22;59091;47.446;19.148;2023-04-24T13:19:38;22.14;51.89
71304;DHT22;59091;47.446;19.148;2023-04-24T13:22:04;21.93;52.16
71304;DHT22;59091;47.446;19.148;2023-04-24T13:24:31;21.99;52.29
71304;DHT22;59091;47.446;19.148;2023-04-24T13:26:57;21.55;53.60
71304;DHT22;59091;47.446;19.148;2023-04-24T13:29:23;21.25;54.40
71304;DHT22;59091;47.446;19.148;2023-04-24T13:31:52;21.34;53.80
71304;DHT22;59091;47.446;19.148;2023-04-24T13:34:24;21.27;54.09
71304;DHT22;59091;47.446;19.148;2023-04-24T13:36:55;20.91;54.29
71304;DHT22;59091;47.446;19.148;2023-04-24T13:39:22;21.00;53.85
71304;DHT22;59091;47.446;19.148;2023-04-24T13:41:48;20.95;54.30
71304;DHT22;59091;47.446;19.148;2023-04-24T13:44:17;20.56;55.12
71304;DHT22;59091;47.446;19.148;2023-04-24T13:46:45;20.61;56.01
71304;DHT22;59091;47.446;19.148;2023-04-24T13:49:14;20.44;56.41
71304;DHT22;59091;47.446;19.148;2023-04-24T13:51:41;20.41;56.39
71304;DHT22;59091;47.446;19.148;2023-04-24T13:54:07;20.47;57.05
71304;DHT22;59091;47.446;19.148;2023-04-24T13:56:33;20.54;56.97
71304;DHT22;59091;47.446;19.148;2023-04-24T13:58:58;20.60;57.43
71304;DHT22;59091;47.446;19.148;2023-04-24T14:01:24;20.50;57.56
71304;DHT22;59091;47.446;19.148;2023-04-24T14:03:54;20.33;56.96
71304;DHT22;59091;47.446;19.148;2023-04-24T14:06:21;20.51;56.19
71304;DHT22;59091;47.446;19.148;2023-04-24T14:08:47;20.77;55.95
71304;DHT22;59091;47.446;19.148;2023-04-24T14:11:13;20.94;57.56
71304;DHT22;59091;47.446;19.148;2023-04-24T14:13:41;21.07;55.88
71304;DHT22;59091;47.446;19.148;2023-04-24T14:16:06;21.17;55.44
71304;DHT22;59091;47.446;19.148;2023-04-24T14:18:32;21.14;55.15
71304;DHT22;59091;47.446;19.148;2023-04-24T14:20:57;21.00;55.75
71304;DHT22;59091;47.446;19.148;2023-04-24T14:23:23;20.84;55.19
71304;DHT22;59091;47.446;19.148;2023-04-24T14:25:49;20.67;55.83
71304;DHT22;59091;47.446;19.148;2023-04-24T14:28:17;20.66;56.32
71304;DHT22;59091;47.446;19.148;2023-04-24T14:30:43;20.26;56.60
71304;DHT22;59091;47.446;19.148;2023-04-24T14:33:09;20.06;57.07
71304;DHT22;59091;47.446;19.148;2023-04-24T14:35:34;20.18;57.10
71304;DHT22;59091;47.446;19.148;2023-04-24T14:38:00;20.04;58.35
71304;DHT22;59091;47.446;19.148;2023-04-24T14:40:25;20.26;58.59
71304;DHT22;59091;47.446;19.148;2023-04-24T14:42:51;20.37;59.42
71304;DHT22;59091;47.446;19.148;2023-04-24T14:45:18;20.33;59.64
71304;DHT22;59091;47.446;19.148;2023-04-24T14:47:44;20.12;59.97
71304;DHT22;59091;47.446;19.148;2023-04-24T14:50:09;19.86;60.33
71304;DHT22;59091;47.446;19.148;2023-04-24T14:52:35;19.55;61.48
71304;DHT22;59091;47.446;19.148;2023-04-24T14:55:01;19.46;61.85
71304;DHT22;59091;47.446;19.148;2023-04-24T14:57:26;19.27;61.54
71304;DHT22;59091;47.446;19.148;2023-04-24T14:59:51;19.34;61.85
71304;DHT22;59091;47.446;19.148;2023-04-24T15:02:17;19.04;63.72
71304;DHT22;59091;47.446;19.148;2023-04-24T15:04:43;19.07;65.44
71304;DHT22;59091;47.446;19.148;2023-04-24T15:07:08;18.97;66.66
71304;DHT22;59091;47.446;19.148;2023-04-24T15:09:34;18.93;68.39
71304;DHT22;59091;47.446;19.148;2023-04-24T15:11:59;18.86;69.76
71304;DHT22;59091;47.446;19.148;2023-04-24T15:14:25;18.89;70.15
71304;DHT22;59091;47.446;19.148;2023-04-24T15:16:50;18.97;69.11